sensor_id;sensor_type;location;lat;lon;timestamp;pressure;altitude;pressure_sealevel;temperature;humidity
42887;BME280;29032;56.028;92.904;2023-07-16T00:03:43;98268.19;;;21.36;62.34
42887;BME280;29032;56.028;92.904;2023-07-16T00:08:47;98265.25;;;21.48;59.01
42887;BME280;29032;56.028;92.904;2023-07-16T00:13:49;98280.63;;;21.45;58.16
42887;BME280;29032;56.028;92.904;2023-07-16T00:18:51;98293.03;;;21.40;58.57
42887;BME280;29032;56.028;92.904;2023-07-16T00:23:54;98295.66;;;21.36;58.33
42887;BME280;29032;56.028;92.904;2023-07-16T00:28:56;98300.34;;;21.31;58.15
42887;BME280;29032;56.028;92.904;2023-07-16T00:33:58;98299.63;;;21.31;58.36
42887;BME280;29032;56.028;92.904;2023-07-16T00:39:02;98308.19;;;21.33;57.87
42887;BME280;29032;56.028;92.904;2023-07-16T00:44:04;98319.47;;;21.33;58.96
42887;BME280;29032;56.028;92.904;2023-07-16T00:49:06;98339.22;;;21.33;59.30
42887;BME280;29032;56.028;92.904;2023-07-16T00:54:10;98327.63;;;21.40;61.84
42887;BME280;29032;56.028;92.904;2023-07-16T00:59:13;98324.50;;;21.34;58.08
42887;BME280;29032;56.028;92.904;2023-07-16T01:04:15;98336.31;;;21.31;59.00
42887;BME280;29032;56.028;92.904;2023-07-16T01:09:19;98337.31;;;21.24;63.26
42887;BME280;29032;56.028;92.904;2023-07-16T01:14:22;98332.72;;;21.16;62.90
42887;BME280;29032;56.028;92.904;2023-07-16T01:19:24;98340.84;;;21.10;63.29
42887;BME280;29032;56.028;92.904;2023-07-16T01:24:52;98344.88;;;21.33;62.30
42887;BME280;29032;56.028;92.904;2023-07-16T01:29:58;98357.19;;;21.26;63.84
42887;BME280;29032;56.028;92.904;2023-07-16T01:35:03;98351.44;;;21.24;62.09
42887;BME280;29032;56.028;92.904;2023-07-16T01:40:08;98348.31;;;21.31;63.93
42887;BME280;29032;56.028;92.904;2023-07-16T01:45:12;98375.50;;;21.38;63.15
42887;BME280;29032;56.028;92.904;2023-07-16T01:50:14;98394.63;;;21.40;62.32
42887;BME280;29032;56.028;92.904;2023-07-16T01:55:16;98383.59;;;21.44;62.67
42887;BME280;29032;56.028;92.904;2023-07-16T02:00:20;98378.28;;;21.50;62.63
42887;BME280;29032;56.028;92.904;2023-07-16T02:05:21;98376.91;;;21.51;60.30
42887;BME280;29032;56.028;92.904;2023-07-16T02:10:23;98374.19;;;21.53;58.19
42887;BME280;29032;56.028;92.904;2023-07-16T02:15:27;98368.78;;;21.57;62.26
42887;BME280;29032;56.028;92.904;2023-07-16T02:20:29;98371.38;;;21.53;62.90
42887;BME280;29032;56.028;92.904;2023-07-16T02:25:32;98386.66;;;21.62;59.33
42887;BME280;29032;56.028;92.904;2023-07-16T02:30:36;98403.59;;;21.62;60.46
42887;BME280;29032;56.028;92.904;2023-07-16T02:35:38;98402.75;;;21.59;57.82
42887;BME280;29032;56.028;92.904;2023-07-16T02:40:43;98412.47;;;21.56;57.35
42887;BME280;29032;56.028;92.904;2023-07-16T02:45:46;98417.91;;;21.52;57.58
42887;BME280;29032;56.028;92.904;2023-07-16T02:50:48;98391.72;;;21.38;59.87
42887;BME280;29032;56.028;92.904;2023-07-16T02:55:50;98397.31;;;21.50;58.23
42887;BME280;29032;56.028;92.904;2023-07-16T03:00:54;98392.72;;;21.56;57.41
42887;BME280;29032;56.028;92.904;2023-07-16T03:05:56;98396.56;;;21.49;61.19
42887;BME280;29032;56.028;92.904;2023-07-16T03:10:59;98397.91;;;21.48;61.40
42887;BME280;29032;56.028;92.904;2023-07-16T03:16:04;98383.91;;;21.50;61.89
42887;BME280;29032;56.028;92.904;2023-07-16T03:21:06;98387.78;;;21.43;62.18
42887;BME280;29032;56.028;92.904;2023-07-16T03:26:08;98397.81;;;21.46;63.77
42887;BME280;29032;56.028;92.904;2023-07-16T03:31:11;98408.94;;;21.56;60.34
42887;BME280;29032;56.028;92.904;2023-07-16T03:36:16;98394.28;;;21.59;61.55
42887;BME280;29032;56.028;92.904;2023-07-16T03:41:19;98386.38;;;21.69;57.04
42887;BME280;29032;56.028;92.904;2023-07-16T03:46:23;98376.44;;;21.82;59.28
42887;BME280;29032;56.028;92.904;2023-07-16T03:51:27;98388.19;;;21.90;56.48
42887;BME280;29032;56.028;92.904;2023-07-16T03:56:29;98396.78;;;21.92;55.70
42887;BME280;29032;56.028;92.904;2023-07-16T04:01:33;98413.44;;;22.00;58.46
42887;BME280;29032;56.028;92.904;2023-07-16T04:06:35;98415.84;;;22.06;56.29
42887;BME280;29032;56.028;92.904;2023-07-16T04:11:37;98422.56;;;22.12;55.77
42887;BME280;29032;56.028;92.904;2023-07-16T04:16:41;98415.97;;;22.21;54.68
42887;BME280;29032;56.028;92.904;2023-07-16T04:21:43;98429.25;;;22.19;56.66
42887;BME280;29032;56.028;92.904;2023-07-16T04:26:45;98425.38;;;22.26;54.54
42887;BME280;29032;56.028;92.904;2023-07-16T04:31:48;98427.91;;;22.34;54.42
42887;BME280;29032;56.028;92.904;2023-07-16T04:36:50;98422.34;;;22.36;54.21
42887;BME280;29032;56.028;92.904;2023-07-16T04:41:52;98428.41;;;22.44;53.76
42887;BME280;29032;56.028;92.904;2023-07-16T04:46:56;98424.44;;;22.49;52.50
42887;BME280;29032;56.028;92.904;2023-07-16T04:51:58;98422.84;;;22.46;52.73
42887;BME280;29032;56.028;92.904;2023-07-16T04:57:00;98420.34;;;22.52;52.72
42887;BME280;29032;56.028;92.904;2023-07-16T05:02:05;98405.38;;;22.63;52.24
